sensor_id;sensor_type;location;lat;lon;timestamp;pressure;altitude;pressure_sealevel;temperature;humidity
72409;BME280;60402;48.082;11.628;2023-09-12T00:01:41;95106.34;;;17.84;100.00
72409;BME280;60402;48.082;11.628;2023-09-12T00:04:28;95114.00;;;17.93;100.00
72409;BME280;60402;48.082;11.628;2023-09-12T00:07:13;95112.44;;;17.97;100.00
72409;BME280;60402;48.082;11.628;2023-09-12T00:09:59;95114.31;;;18.00;100.00
72409;BME280;60402;48.082;11.628;2023-09-12T00:12:44;95109.78;;;17.88;100.00
72409;BME280;60402;48.082;11.628;2023-09-12T00:15:30;95100.19;;;17.71;100.00
72409;BME280;60402;48.082;11.628;2023-09-12T00:18:16;95096.03;;;17.51;100.00
72409;BME280;60402;48.082;11.628;2023-09-12T00:21:02;95100.84;;;17.60;100.00
72409;BME280;60402;48.082;11.628;2023-09-12T00:23:48;95086.16;;;17.73;100.00
72409;BME280;60402;48.082;11.628;2023-09-12T00:26:34;95109.03;;;17.73;100.00
72409;BME280;60402;48.082;11.628;2023-09-12T00:29:20;95082.41;;;17.61;100.00
72409;BME280;60402;48.082;11.628;2023-09-12T00:32:05;95100.44;;;17.73;100.00
72409;BME280;60402;48.082;11.628;2023-09-12T00:34:51;95079.88;;;17.69;100.00
72409;BME280;60402;48.082;11.628;2023-09-12T00:37:36;95101.25;;;17.73;100.00
72409;BME280;60402;48.082;11.628;2023-09-12T00:40:22;95074.56;;;17.56;100.00
72409;BME280;60402;48.082;11.628;2023-09-12T00:43:08;95087.03;;;17.58;100.00
72409;BME280;60402;48.082;11.628;2023-09-12T00:45:53;95086.25;;;17.58;100.00
72409;BME280;60402;48.082;11.628;2023-09-12T00:48:39;95071.84;;;17.47;100.00
72409;BME280;60402;48.082;11.628;2023-09-12T00:51:25;95081.81;;;17.57;100.00
72409;BME280;60402;48.082;11.628;2023-09-12T00:54:11;95086.09;;;17.67;100.00
72409;BME280;60402;48.082;11.628;2023-09-12T00:56:57;95089.25;;;17.69;100.00
72409;BME280;60402;48.082;11.628;2023-09-12T00:59:43;95078.09;;;17.71;100.00
72409;BME280;60402;48.082;11.628;2023-09-12T01:02:29;95070.59;;;17.53;100.00
72409;BME280;60402;48.082;11.628;2023-09-12T02:04:30;95073.84;;;16.70;100.00
72409;BME280;60402;48.082;11.628;2023-09-12T02:07:16;95044.66;;;16.46;100.00
72409;BME280;60402;48.082;11.628;2023-09-12T02:10:02;95054.31;;;16.48;100.00
72409;BME280;60402;48.082;11.628;2023-09-12T02:12:49;95084.19;;;16.68;100.00
72409;BME280;60402;48.082;11.628;2023-09-12T02:15:35;95078.28;;;16.71;100.00
72409;BME280;60402;48.082;11.628;2023-09-12T02:18:21;95098.16;;;16.80;100.00
72409;BME280;60402;48.082;11.628;2023-09-12T02:21:07;95085.97;;;16.80;100.00
72409;BME280;60402;48.082;11.628;2023-09-12T02:23:52;95080.81;;;16.69;100.00
72409;BME280;60402;48.082;11.628;2023-09-12T02:26:38;95081.31;;;16.68;100.00
72409;BME280;60402;48.082;11.628;2023-09-12T02:29:23;95082.72;;;16.57;100.00
72409;BME280;60402;48.082;11.628;2023-09-12T02:32:09;95097.94;;;16.69;100.00
72409;BME280;60402;48.082;11.628;2023-09-12T02:34:55;95110.84;;;16.79;100.00
72409;BME280;60402;48.082;11.628;2023-09-12T02:37:42;95090.38;;;16.66;100.00
72409;BME280;60402;48.082;11.628;2023-09-12T02:40:28;95080.94;;;16.60;100.00
72409;BME280;60402;48.082;11.628;2023-09-12T02:43:14;95075.94;;;16.55;100.00
72409;BME280;60402;48.082;11.628;2023-09-12T02:45:59;95095.19;;;16.60;100.00
72409;BME280;60402;48.082;11.628;2023-09-12T02:48:45;95077.69;;;16.67;100.00
72409;BME280;60402;48.082;11.628;2023-09-12T02:51:31;95097.84;;;16.78;100.00
72409;BME280;60402;48.082;11.628;2023-09-12T02:54:16;95081.53;;;16.64;100.00
72409;BME280;60402;48.082;11.628;2023-09-12T02:57:02;95085.16;;;16.65;100.00
72409;BME280;60402;48.082;11.628;2023-09-12T02:59:48;95085.56;;;16.57;100.00
72409;BME280;60402;48.082;11.628;2023-09-12T03:02:34;95090.06;;;16.64;100.00
72409;BME280;60402;48.082;11.628;2023-09-12T03:05:19;95082.81;;;16.63;100.00
72409;BME280;60402;48.082;11.628;2023-09-12T03:08:05;95070.81;;;16.59;100.00
72409;BME280;60402;48.082;11.628;2023-09-12T03:10:57;95075.66;;;16.53;100.00
72409;BME280;60402;48.082;11.628;2023-09-12T03:13:43;95046.84;;;16.21;100.00
72409;BME280;60402;48.082;11.628;2023-09-12T03:16:28;95091.19;;;16.52;100.00
72409;BME280;60402;48.082;11.628;2023-09-12T03:19:14;95078.53;;;16.38;100.00
72409;BME280;60402;48.082;11.628;2023-09-12T03:22:00;95089.94;;;16.38;100.00
72409;BME280;60402;48.082;11.628;2023-09-12T03:24:45;95095.72;;;16.44;100.00
72409;BME280;60402;48.082;11.628;2023-09-12T03:27:31;95098.06;;;16.45;100.00
72409;BME280;60402;48.082;11.628;2023-09-12T03:30:20;95082.06;;;16.33;100.00
72409;BME280;60402;48.082;11.628;2023-09-12T03:33:05;95092.88;;;16.44;100.00
72409;BME280;60402;48.082;11.628;2023-09-12T03:35:51;95080.97;;;16.30;100.00
72409;BME280;60402;48.082;11.628;2023-09-12T03:38:37;95072.41;;;16.16;100.00
72409;BME280;60402;48.082;11.628;2023-09-12T03:41:22;95090.31;;;16.31;100.00
72409;BME280;60402;48.082;11.628;2023-09-12T03:44:10;95078.22;;;16.21;100.00
72409;BME280;60402;48.082;11.628;2023-09-12T03:46:56;95072.81;;;16.08;100.00
72409;BME280;60402;48.082;11.628;2023-09-12T03:49:43;95097.56;;;16.17;100.00
72409;BME280;60402;48.082;11.628;2023-09-12T03:52:29;95088.66;;;16.09;100.00
72409;BME280;60402;48.082;11.628;2023-09-12T03:55:15;95072.69;;;16.03;100.00
72409;BME280;60402;48.082;11.628;2023-09-12T03:58:01;95080.97;;;16.16;100.00
72409;BME280;60402;48.082;11.628;2023-09-12T04:00:46;95041.44;;;15.79;100.00
72409;BME280;60402;48.082;11.628;2023-09-12T04:03:32;95080.19;;;16.15;100.00
72409;BME280;60402;48.082;11.628;2023-09-12T04:06:18;95080.56;;;16.23;100.00
72409;BME280;60402;48.082;11.628;2023-09-12T04:09:03;95069.75;;;16.12;100.00
72409;BME280;60402;48.082;11.628;2023-09-12T04:11:49;95083.91;;;16.06;100.00
72409;BME280;60402;48.082;11.628;2023-09-12T04:14:35;95078.81;;;15.96;100.00
72409;BME280;60402;48.082;11.628;2023-09-12T04:17:21;95082.63;;;15.93;100.00
72409;BME280;60402;48.082;11.628;2023-09-12T04:20:07;95088.59;;;15.95;100.00
72409;BME280;60402;48.082;11.628;2023-09-12T04:22:52;95064.25;;;15.79;100.00
72409;BME280;60402;48.082;11.628;2023-09-12T04:25:42;95073.78;;;15.91;100.00
72409;BME280;60402;48.082;11.628;2023-09-12T04:28:28;95091.78;;;15.97;100.00
72409;BME280;60402;48.082;11.628;2023-09-12T04:31:13;95096.78;;;16.02;100.00
72409;BME280;60402;48.082;11.628;2023-09-12T04:33:59;95100.50;;;15.93;100.00
72409;BME280;60402;48.082;11.628;2023-09-12T04:36:45;95083.31;;;15.88;100.00
72409;BME280;60402;48.082;11.628;2023-09-12T04:39:31;95081.84;;;15.92;100.00
72409;BME280;60402;48.082;11.628;2023-09-12T04:42:16;95077.91;;;15.90;100.00
72409;BME280;60402;48.082;11.628;2023-09-12T04:45:02;95086.06;;;15.97;100.00
72409;BME280;60402;48.082;11.628;2023-09-12T04:47:48;95082.91;;;15.95;100.00
72409;BME280;60402;48.082;11.628;2023-09-12T04:50:40;95099.63;;;16.02;100.00
72409;BME280;60402;48.082;11.628;2023-09-12T04:53:26;95083.50;;;15.84;100.00
72409;BME280;60402;48.082;11.628;2023-09-12T04:56:11;95075.84;;;15.90;100.00
72409;BME280;60402;48.082;11.628;2023-09-12T04:58:57;95083.88;;;15.77;100.00
72409;BME280;60402;48.082;11.628;2023-09-12T05:01:43;95088.91;;;15.82;100.00
72409;BME280;60402;48.082;11.628;2023-09-12T05:04:29;95113.00;;;15.96;100.00
72409;BME280;60402;48.082;11.628;2023-09-12T05:07:14;95111.91;;;15.93;100.00
72409;BME280;60402;48.082;11.628;2023-09-12T05:10:00;95112.31;;;15.86;100.00
72409;BME280;60402;48.082;11.628;2023-09-12T05:12:46;95115.34;;;15.82;100.00
72409;BME280;60402;48.082;11.628;2023-09-12T05:15:31;95084.75;;;15.68;100.00
72409;BME280;60402;48.082;11.628;2023-09-12T05:18:17;95097.13;;;15.80;100.00
72409;BME280;60402;48.082;11.628;2023-09-12T05:21:02;95088.81;;;15.76;100.00
72409;BME280;60402;48.082;11.628;2023-09-12T05:23:48;95106.22;;;15.93;100.00
72409;BME280;60402;48.082;11.628;2023-09-12T05:26:34;95118.81;;;16.01;100.00
72409;BME280;60402;48.082;11.628;2023-09-12T05:29:19;95102.78;;;16.04;100.00
72409;BME280;60402;48.082;11.628;2023-09-12T05:32:05;95095.03;;;16.04;100.00
72409;BME280;60402;48.082;11.628;2023-09-12T05:34:51;95099.38;;;16.15;100.00
72409;BME280;60402;48.082;11.628;2023-09-12T05:37:38;95106.81;;;16.27;100.00
72409;BME280;60402;48.082;11.628;2023-09-12T05:40:23;95111.84;;;16.32;100.00
72409;BME280;60402;48.082;11.628;2023-09-12T05:43:09;95112.16;;;16.34;100.00
72409;BME280;60402;48.082;11.628;2023-09-12T05:45:55;95107.31;;;16.40;100.00
72409;BME280;60402;48.082;11.628;2023-09-12T05:48:42;95098.75;;;16.40;100.00
72409;BME280;60402;48.082;11.628;2023-09-12T05:51:28;95125.00;;;16.59;100.00
72409;BME280;60402;48.082;11.628;2023-09-12T05:54:14;95117.03;;;16.63;100.00
72409;BME280;60402;48.082;11.628;2023-09-12T05:57:00;95106.22;;;16.67;100.00
72409;BME280;60402;48.082;11.628;2023-09-12T05:59:46;95109.84;;;16.82;100.00
72409;BME280;60402;48.082;11.628;2023-09-12T06:02:32;95109.66;;;16.86;100.00
72409;BME280;60402;48.082;11.628;2023-09-12T06:05:19;95127.59;;;17.07;100.00
72409;BME280;60402;48.082;11.628;2023-09-12T06:08:05;95111.06;;;17.11;100.00
72409;BME280;60402;48.082;11.628;2023-09-12T06:10:50;95132.44;;;17.36;100.00
72409;BME280;60402;48.082;11.628;2023-09-12T06:13:39;95134.88;;;17.43;100.00
72409;BME280;60402;48.082;11.628;2023-09-12T06:16:24;95126.72;;;17.36;100.00
72409;BME280;60402;48.082;11.628;2023-09-12T06:19:10;95137.94;;;17.40;100.00
72409;BME280;60402;48.082;11.628;2023-09-12T06:21:55;95140.72;;;17.54;100.00
72409;BME280;60402;48.082;11.628;2023-09-12T06:24:41;95143.69;;;17.60;100.00
72409;BME280;60402;48.082;11.628;2023-09-12T06:27:27;95126.50;;;17.75;100.00
72409;BME280;60402;48.082;11.628;2023-09-12T06:30:13;95121.69;;;18.59;98.94
72409;BME280;60402;48.082;11.628;2023-09-12T06:32:59;95130.63;;;19.35;93.18
72409;BME280;60402;48.082;11.628;2023-09-12T06:35:48;95136.72;;;19.11;95.28
72409;BME280;60402;48.082;11.628;2023-09-12T06:38:34;95124.56;;;19.28;94.79
72409;BME280;60402;48.082;11.628;2023-09-12T06:41:20;95128.00;;;19.37;94.72
72409;BME280;60402;48.082;11.628;2023-09-12T06:44:06;95131.38;;;19.30;95.37
72409;BME280;60402;48.082;11.628;2023-09-12T06:46:52;95114.25;;;19.41;94.12
72409;BME280;60402;48.082;11.628;2023-09-12T06:49:38;95122.38;;;19.49;94.78
72409;BME280;60402;48.082;11.628;2023-09-12T06:52:24;95141.88;;;19.87;92.97
72409;BME280;60402;48.082;11.628;2023-09-12T06:55:10;95130.97;;;20.08;91.17
72409;BME280;60402;48.082;11.628;2023-09-12T06:57:55;95133.41;;;20.32;90.62
72409;BME280;60402;48.082;11.628;2023-09-12T07:00:41;95141.78;;;20.41;89.88
72409;BME280;60402;48.082;11.628;2023-09-12T07:03:26;95136.34;;;20.55;90.02
72409;BME280;60402;48.082;11.628;2023-09-12T07:06:12;95141.59;;;20.67;89.87
72409;BME280;60402;48.082;11.628;2023-09-12T07:08:59;95147.91;;;21.00;89.22
72409;BME280;60402;48.082;11.628;2023-09-12T07:11:44;95142.91;;;21.28;88.41
72409;BME280;60402;48.082;11.628;2023-09-12T07:14:30;95140.50;;;21.72;85.50
72409;BME280;60402;48.082;11.628;2023-09-12T07:17:16;95144.31;;;22.08;84.52
72409;BME280;60402;48.082;11.628;2023-09-12T07:20:03;95150.72;;;22.83;81.22
72409;BME280;60402;48.082;11.628;2023-09-12T07:22:49;95153.00;;;24.54;72.19
72409;BME280;60402;48.082;11.628;2023-09-12T07:25:40;95152.94;;;25.30;69.62
72409;BME280;60402;48.082;11.628;2023-09-12T07:28:27;95166.22;;;26.10;67.73
72409;BME280;60402;48.082;11.628;2023-09-12T07:31:14;95165.56;;;28.01;61.58
72409;BME280;60402;48.082;11.628;2023-09-12T07:33:59;95154.72;;;29.85;54.14
72409;BME280;60402;48.082;11.628;2023-09-12T07:36:45;95163.97;;;32.31;47.27
72409;BME280;60402;48.082;11.628;2023-09-12T07:39:30;95166.38;;;34.37;40.92
72409;BME280;60402;48.082;11.628;2023-09-12T07:42:21;95170.53;;;35.58;38.85
72409;BME280;60402;48.082;11.628;2023-09-12T07:45:07;95175.16;;;36.74;37.35
72409;BME280;60402;48.082;11.628;2023-09-12T07:47:53;95168.50;;;38.51;33.33
72409;BME280;60402;48.082;11.628;2023-09-12T07:50:39;95174.41;;;37.38;35.46
72409;BME280;60402;48.082;11.628;2023-09-12T07:53:25;95163.19;;;39.45;32.17
72409;BME280;60402;48.082;11.628;2023-09-12T07:56:10;95175.84;;;41.19;29.30
72409;BME280;60402;48.082;11.628;2023-09-12T07:58:57;95183.84;;;40.75;29.56
72409;BME280;60402;48.082;11.628;2023-09-12T08:01:43;95177.50;;;40.14;30.60
72409;BME280;60402;48.082;11.628;2023-09-12T08:04:29;95183.47;;;41.51;28.39
72409;BME280;60402;48.082;11.628;2023-09-12T08:07:15;95179.69;;;41.94;28.09
72409;BME280;60402;48.082;11.628;2023-09-12T08:10:00;95173.34;;;41.56;28.49
72409;BME280;60402;48.082;11.628;2023-09-12T08:12:46;95192.41;;;41.97;27.67
72409;BME280;60402;48.082;11.628;2023-09-12T08:15:31;95191.31;;;43.82;25.52
72409;BME280;60402;48.082;11.628;2023-09-12T08:18:17;95182.38;;;44.18;24.78
72409;BME280;60402;48.082;11.628;2023-09-12T08:21:03;95184.44;;;44.88;23.85
72409;BME280;60402;48.082;11.628;2023-09-12T08:23:49;95176.88;;;43.41;26.16
72409;BME280;60402;48.082;11.628;2023-09-12T08:26:34;95178.88;;;43.18;25.70
72409;BME280;60402;48.082;11.628;2023-09-12T08:29:20;95182.28;;;43.28;25.53
72409;BME280;60402;48.082;11.628;2023-09-12T08:32:06;95186.13;;;44.36;24.66
72409;BME280;60402;48.082;11.628;2023-09-12T08:34:51;95186.22;;;42.68;26.42
72409;BME280;60402;48.082;11.628;2023-09-12T08:37:38;95192.00;;;44.92;23.90
72409;BME280;60402;48.082;11.628;2023-09-12T08:40:25;95191.31;;;43.64;25.00
72409;BME280;60402;48.082;11.628;2023-09-12T08:43:11;95187.00;;;43.85;25.03
72409;BME280;60402;48.082;11.628;2023-09-12T08:45:56;95187.84;;;43.87;24.72
72409;BME280;60402;48.082;11.628;2023-09-12T08:48:42;95186.50;;;43.39;25.68
72409;BME280;60402;48.082;11.628;2023-09-12T08:51:29;95180.66;;;45.06;23.68
72409;BME280;60402;48.082;11.628;2023-09-12T08:54:14;95168.88;;;44.70;24.02
72409;BME280;60402;48.082;11.628;2023-09-12T08:57:04;95182.75;;;45.85;22.28
72409;BME280;60402;48.082;11.628;2023-09-12T08:59:51;95176.19;;;45.47;22.99
72409;BME280;60402;48.082;11.628;2023-09-12T09:02:38;95174.63;;;45.04;23.32
72409;BME280;60402;48.082;11.628;2023-09-12T09:05:24;95168.56;;;44.44;24.02
72409;BME280;60402;48.082;11.628;2023-09-12T09:08:11;95176.91;;;43.07;25.79
72409;BME280;60402;48.082;11.628;2023-09-12T09:10:59;95167.41;;;41.13;26.58
72409;BME280;60402;48.082;11.628;2023-09-12T09:13:47;95129.81;;;42.06;26.59
72409;BME280;60402;48.082;11.628;2023-09-12T09:16:33;95155.81;;;40.36;27.96
72409;BME280;60402;48.082;11.628;2023-09-12T09:19:21;95149.31;;;39.73;29.02
72409;BME280;60402;48.082;11.628;2023-09-12T09:22:06;95164.47;;;37.00;30.70
72409;BME280;60402;48.082;11.628;2023-09-12T09:25:09;95163.41;;;33.91;35.01
72409;BME280;60402;48.082;11.628;2023-09-12T09:27:55;95152.31;;;34.26;36.65
72409;BME280;60402;48.082;11.628;2023-09-12T09:30:45;95141.59;;;34.77;34.76
72409;BME280;60402;48.082;11.628;2023-09-12T09:33:35;95140.19;;;34.49;36.43
72409;BME280;60402;48.082;11.628;2023-09-12T09:36:21;95134.88;;;34.28;37.00
72409;BME280;60402;48.082;11.628;2023-09-12T09:39:07;95144.69;;;33.49;37.16
72409;BME280;60402;48.082;11.628;2023-09-12T09:41:54;95143.81;;;32.00;38.77
72409;BME280;60402;48.082;11.628;2023-09-12T09:44:40;95141.59;;;32.51;39.53
72409;BME280;60402;48.082;11.628;2023-09-12T09:47:26;95144.75;;;31.05;42.10
72409;BME280;60402;48.082;11.628;2023-09-12T09:50:15;95131.69;;;30.66;44.32
72409;BME280;60402;48.082;11.628;2023-09-12T09:53:01;95128.72;;;31.29;42.77
72409;BME280;60402;48.082;11.628;2023-09-12T09:55:47;95143.66;;;30.93;43.76
72409;BME280;60402;48.082;11.628;2023-09-12T09:58:33;95138.25;;;31.62;44.33
72409;BME280;60402;48.082;11.628;2023-09-12T10:01:20;95139.88;;;31.15;44.03
72409;BME280;60402;48.082;11.628;2023-09-12T10:04:06;95127.81;;;30.55;44.59
72409;BME280;60402;48.082;11.628;2023-09-12T10:06:55;95119.00;;;31.19;44.68
72409;BME280;60402;48.082;11.628;2023-09-12T10:09:43;95110.81;;;31.25;43.68
72409;BME280;60402;48.082;11.628;2023-09-12T10:12:31;95125.69;;;30.56;45.31
72409;BME280;60402;48.082;11.628;2023-09-12T10:15:20;95122.66;;;30.08;45.83
72409;BME280;60402;48.082;11.628;2023-09-12T10:18:09;95124.81;;;29.77;45.91
72409;BME280;60402;48.082;11.628;2023-09-12T10:20:59;95124.03;;;29.99;45.73
72409;BME280;60402;48.082;11.628;2023-09-12T10:23:49;95125.69;;;29.26;46.23
72409;BME280;60402;48.082;11.628;2023-09-12T10:26:37;95119.56;;;29.91;45.35
72409;BME280;60402;48.082;11.628;2023-09-12T10:29:30;95105.53;;;30.35;43.33
72409;BME280;60402;48.082;11.628;2023-09-12T10:32:16;95112.94;;;30.28;44.16
72409;BME280;60402;48.082;11.628;2023-09-12T10:35:06;95115.88;;;30.21;42.24
72409;BME280;60402;48.082;11.628;2023-09-12T10:37:54;95107.53;;;30.17;44.26
72409;BME280;60402;48.082;11.628;2023-09-12T10:40:44;95116.06;;;30.15;45.02
72409;BME280;60402;48.082;11.628;2023-09-12T10:43:31;95107.88;;;30.37;44.54
72409;BME280;60402;48.082;11.628;2023-09-12T10:46:47;95120.72;;;30.18;44.56
72409;BME280;60402;48.082;11.628;2023-09-12T10:49:33;95110.66;;;29.89;45.07
72409;BME280;60402;48.082;11.628;2023-09-12T10:52:26;95103.25;;;29.72;45.65
72409;BME280;60402;48.082;11.628;2023-09-12T10:55:16;95112.56;;;30.01;45.93
72409;BME280;60402;48.082;11.628;2023-09-12T10:58:07;95089.88;;;29.69;46.47
72409;BME280;60402;48.082;11.628;2023-09-12T11:01:22;95101.28;;;29.29;47.55
72409;BME280;60402;48.082;11.628;2023-09-12T11:10:17;95108.69;;;29.99;47.03
72409;BME280;60402;48.082;11.628;2023-09-12T11:13:17;95097.81;;;29.69;46.14
72409;BME280;60402;48.082;11.628;2023-09-12T11:16:10;95090.63;;;29.93;45.23
72409;BME280;60402;48.082;11.628;2023-09-12T11:19:18;95104.75;;;30.35;45.01
72409;BME280;60402;48.082;11.628;2023-09-12T11:22:21;95108.47;;;30.27;44.40
72409;BME280;60402;48.082;11.628;2023-09-12T11:25:18;95099.13;;;30.37;44.13
72409;BME280;60402;48.082;11.628;2023-09-12T11:28:11;95089.28;;;30.17;43.57
72409;BME280;60402;48.082;11.628;2023-09-12T11:30:57;95100.66;;;30.38;43.54
72409;BME280;60402;48.082;11.628;2023-09-12T11:33:43;95087.69;;;29.39;45.91
72409;BME280;60402;48.082;11.628;2023-09-12T11:36:29;95088.50;;;28.73;46.91
72409;BME280;60402;48.082;11.628;2023-09-12T11:39:24;95088.22;;;29.07;47.25
72409;BME280;60402;48.082;11.628;2023-09-12T11:42:11;95083.66;;;28.75;46.74
72409;BME280;60402;48.082;11.628;2023-09-12T11:44:59;95088.25;;;29.15;48.19
72409;BME280;60402;48.082;11.628;2023-09-12T11:47:46;95094.28;;;29.32;46.92
72409;BME280;60402;48.082;11.628;2023-09-12T11:50:34;95088.69;;;29.42;45.12
72409;BME280;60402;48.082;11.628;2023-09-12T11:53:29;95090.63;;;29.47;45.09
72409;BME280;60402;48.082;11.628;2023-09-12T11:56:18;95056.25;;;29.30;44.63
72409;BME280;60402;48.082;11.628;2023-09-12T11:59:04;95036.84;;;29.10;45.18
72409;BME280;60402;48.082;11.628;2023-09-12T12:01:49;95073.38;;;29.72;45.46
72409;BME280;60402;48.082;11.628;2023-09-12T12:04:36;95062.88;;;29.69;44.42
72409;BME280;60402;48.082;11.628;2023-09-12T12:07:22;95073.72;;;30.22;42.84
72409;BME280;60402;48.082;11.628;2023-09-12T12:10:07;95077.75;;;30.11;41.67
72409;BME280;60402;48.082;11.628;2023-09-12T12:12:53;95078.59;;;29.81;41.45
72409;BME280;60402;48.082;11.628;2023-09-12T12:15:39;95067.47;;;30.10;41.56
72409;BME280;60402;48.082;11.628;2023-09-12T12:18:25;95066.91;;;29.96;42.01
72409;BME280;60402;48.082;11.628;2023-09-12T12:21:12;95063.06;;;29.86;41.68
72409;BME280;60402;48.082;11.628;2023-09-12T12:24:01;95076.03;;;30.00;41.79
72409;BME280;60402;48.082;11.628;2023-09-12T12:26:48;95067.09;;;30.06;41.15
72409;BME280;60402;48.082;11.628;2023-09-12T12:29:35;95065.94;;;30.01;39.87
72409;BME280;60402;48.082;11.628;2023-09-12T12:32:20;95053.72;;;30.03;39.41
72409;BME280;60402;48.082;11.628;2023-09-12T12:35:06;95057.66;;;29.75;39.38
72409;BME280;60402;48.082;11.628;2023-09-12T12:37:54;95046.97;;;29.70;39.49
72409;BME280;60402;48.082;11.628;2023-09-12T12:40:41;95043.66;;;29.81;38.74
72409;BME280;60402;48.082;11.628;2023-09-12T12:43:27;95058.78;;;29.95;38.86
72409;BME280;60402;48.082;11.628;2023-09-12T12:46:13;95038.78;;;29.91;39.12
72409;BME280;60402;48.082;11.628;2023-09-12T12:48:59;95045.56;;;30.17;37.92
72409;BME280;60402;48.082;11.628;2023-09-12T12:51:45;95059.72;;;30.20;38.42
72409;BME280;60402;48.082;11.628;2023-09-12T12:54:31;95053.13;;;30.04;38.08
72409;BME280;60402;48.082;11.628;2023-09-12T12:57:19;95043.47;;;29.71;37.92
72409;BME280;60402;48.082;11.628;2023-09-12T13:00:07;95030.66;;;29.74;38.07
72409;BME280;60402;48.082;11.628;2023-09-12T13:02:56;95021.09;;;29.97;38.06
72409;BME280;60402;48.082;11.628;2023-09-12T13:05:41;95027.88;;;29.99;36.79
72409;BME280;60402;48.082;11.628;2023-09-12T13:08:27;95036.47;;;29.90;37.72
72409;BME280;60402;48.082;11.628;2023-09-12T13:11:14;95014.94;;;29.54;36.50
72409;BME280;60402;48.082;11.628;2023-09-12T13:14:00;95009.72;;;29.22;35.32
72409;BME280;60402;48.082;11.628;2023-09-12T13:16:45;95020.19;;;29.56;36.37
72409;BME280;60402;48.082;11.628;2023-09-12T13:19:31;95014.34;;;29.71;36.24
72409;BME280;60402;48.082;11.628;2023-09-12T13:22:17;95003.31;;;29.62;34.84
72409;BME280;60402;48.082;11.628;2023-09-12T13:25:03;95011.44;;;29.48;36.06
72409;BME280;60402;48.082;11.628;2023-09-12T13:27:49;95003.47;;;29.49;37.00
72409;BME280;60402;48.082;11.628;2023-09-12T13:30:35;95003.09;;;29.75;37.50
72409;BME280;60402;48.082;11.628;2023-09-12T13:33:23;94997.06;;;29.81;37.02
72409;BME280;60402;48.082;11.628;2023-09-12T13:36:22;94991.09;;;29.41;36.65
72409;BME280;60402;48.082;11.628;2023-09-12T13:39:17;94931.34;;;29.09;36.61
72409;BME280;60402;48.082;11.628;2023-09-12T13:49:44;94962.56;;;29.16;37.66
72409;BME280;60402;48.082;11.628;2023-09-12T13:53:01;94953.78;;;28.93;37.55
72409;BME280;60402;48.082;11.628;2023-09-12T13:56:16;94978.81;;;29.50;38.71
72409;BME280;60402;48.082;11.628;2023-09-12T13:59:15;94971.69;;;29.28;37.00
72409;BME280;60402;48.082;11.628;2023-09-12T14:02:42;94936.38;;;29.32;35.26
72409;BME280;60402;48.082;11.628;2023-09-12T14:05:48;94996.69;;;29.54;34.74
72409;BME280;60402;48.082;11.628;2023-09-12T14:08:43;94964.50;;;29.37;34.81
72409;BME280;60402;48.082;11.628;2023-09-12T14:11:34;95000.38;;;29.70;34.40
72409;BME280;60402;48.082;11.628;2023-09-12T14:17:43;94937.72;;;28.92;38.64
72409;BME280;60402;48.082;11.628;2023-09-12T14:20:40;94940.47;;;29.06;42.58
72409;BME280;60402;48.082;11.628;2023-09-12T14:23:48;94957.34;;;29.22;44.73
72409;BME280;60402;48.082;11.628;2023-09-12T14:30:12;94967.22;;;29.19;45.39
72409;BME280;60402;48.082;11.628;2023-09-12T14:33:02;94926.50;;;28.96;45.58
72409;BME280;60402;48.082;11.628;2023-09-12T14:35:55;94902.22;;;28.78;45.35
72409;BME280;60402;48.082;11.628;2023-09-12T14:38:52;94960.63;;;29.03;45.34
72409;BME280;60402;48.082;11.628;2023-09-12T14:41:44;94947.59;;;28.82;42.23
72409;BME280;60402;48.082;11.628;2023-09-12T14:44:36;94977.31;;;28.95;44.69
72409;BME280;60402;48.082;11.628;2023-09-12T14:47:26;94932.41;;;28.37;46.77
72409;BME280;60402;48.082;11.628;2023-09-12T14:50:26;94945.06;;;28.70;46.52
72409;BME280;60402;48.082;11.628;2023-09-12T14:53:18;94955.16;;;28.92;46.68
72409;BME280;60402;48.082;11.628;2023-09-12T14:56:07;94959.25;;;28.89;47.49
72409;BME280;60402;48.082;11.628;2023-09-12T14:59:01;94945.69;;;29.07;47.69
72409;BME280;60402;48.082;11.628;2023-09-12T15:01:49;94927.66;;;29.01;47.61
72409;BME280;60402;48.082;11.628;2023-09-12T15:04:35;94964.91;;;29.10;49.02
72409;BME280;60402;48.082;11.628;2023-09-12T15:07:20;94891.38;;;28.56;48.17
72409;BME280;60402;48.082;11.628;2023-09-12T15:10:08;94956.13;;;28.72;48.69
72409;BME280;60402;48.082;11.628;2023-09-12T15:12:54;94951.25;;;28.51;49.33
72409;BME280;60402;48.082;11.628;2023-09-12T15:15:41;94956.63;;;28.40;49.72
72409;BME280;60402;48.082;11.628;2023-09-12T15:18:33;94906.34;;;28.09;50.22
72409;BME280;60402;48.082;11.628;2023-09-12T15:21:32;94975.28;;;28.67;51.16
72409;BME280;60402;48.082;11.628;2023-09-12T15:24:24;94931.22;;;28.33;52.11
72409;BME280;60402;48.082;11.628;2023-09-12T15:27:12;94981.84;;;28.60;52.09
72409;BME280;60402;48.082;11.628;2023-09-12T15:30:01;94911.22;;;28.14;52.04
72409;BME280;60402;48.082;11.628;2023-09-12T15:32:47;94972.16;;;28.50;52.20
72409;BME280;60402;48.082;11.628;2023-09-12T15:35:38;94903.03;;;27.97;52.91
72409;BME280;60402;48.082;11.628;2023-09-12T15:38:27;94923.75;;;28.01;52.97
72409;BME280;60402;48.082;11.628;2023-09-12T15:41:21;94984.91;;;28.39;52.64
72409;BME280;60402;48.082;11.628;2023-09-12T15:44:10;94938.69;;;28.05;53.69
72409;BME280;60402;48.082;11.628;2023-09-12T15:47:02;94960.91;;;28.02;53.25
72409;BME280;60402;48.082;11.628;2023-09-12T15:53:31;94926.00;;;27.51;53.54
72409;BME280;60402;48.082;11.628;2023-09-12T15:56:49;94964.78;;;27.69;53.35